Time;durP1;ratioP1;P1;durP2;ratioP2;P2;SDS_P1;SDS_P2;PMS_P1;PMS_P2;Temp;Humidity;BMP_temperature;BMP_pressure;BME280_temperature;BME280_humidity;BME280_pressure;Samples;Min_cycle;Max_cycle;Signal;HPM_P1;HPM_P2
2021/06/06 00:01:31;;;;;;;42.72;35.58;;;;;;;17.68;98.23;101930.78;5030344;28;20085;-76
2021/06/06 00:03:58;;;;;;;43.35;35.03;;;;;;;17.70;98.11;101934.09;5017179;28;20103;-76
2021/06/06 00:06:33;;;;;;;40.65;35.83;;;;;;;17.71;98.51;101938.44;5033945;28;20036;-77
2021/06/06 00:09:01;;;;;;;39.97;35.63;;;;;;;17.68;98.60;101937.94;5041435;28;20032;-77
2021/06/06 00:11:29;;;;;;;41.45;36.88;;;;;;;17.66;98.49;101932.78;5029229;28;20091;-77
2021/06/06 00:13:57;;;;;;;42.05;36.28;;;;;;;17.67;98.47;101934.44;5030615;28;20037;-75
2021/06/06 00:16:38;;;;;;;46.88;37.55;;;;;;;17.66;98.25;101930.13;5039591;28;20114;-76
2021/06/06 00:19:05;;;;;;;41.30;33.28;;;;;;;17.63;98.56;101932.28;5025262;28;20029;-75
2021/06/06 00:21:31;;;;;;;48.03;37.22;;;;;;;17.60;98.65;101938.75;5042971;28;20044;-78
2021/06/06 00:23:57;;;;;;;40.20;32.38;;;;;;;17.59;98.57;101939.72;5037757;28;20041;-78
2021/06/06 00:26:23;;;;;;;40.17;35.42;;;;;;;17.62;98.70;101941.25;5034922;28;20378;-76
2021/06/06 00:28:49;;;;;;;46.22;36.03;;;;;;;17.57;99.02;101943.53;5013244;28;20124;-76
2021/06/06 00:31:15;;;;;;;44.17;36.28;;;;;;;17.54;99.07;101942.06;5024310;28;20391;-76
2021/06/06 00:33:41;;;;;;;45.03;37.88;;;;;;;17.52;99.46;101938.75;5053784;28;20033;-77
2021/06/06 00:36:08;;;;;;;38.92;34.67;;;;;;;17.52;99.41;101947.53;5022623;28;20163;-78
2021/06/06 00:38:34;;;;;;;43.60;38.70;;;;;;;17.53;99.68;101958.97;5023790;28;20667;-76
2021/06/06 00:41:01;;;;;;;42.72;36.80;;;;;;;17.49;100.00;101955.78;5026847;28;20033;-77
2021/06/06 00:43:28;;;;;;;43.63;37.47;;;;;;;17.47;100.00;101955.13;5034867;28;20148;-77
2021/06/06 00:45:55;;;;;;;42.53;37.45;;;;;;;17.48;100.00;101951.50;5034230;28;20053;-77
2021/06/06 00:48:22;;;;;;;42.25;37.70;;;;;;;17.49;100.00;101963.75;5038899;28;20567;-76
2021/06/06 00:50:57;;;;;;;41.53;37.15;;;;;;;17.48;100.00;101963.94;5025592;28;20121;-76
2021/06/06 00:53:35;;;;;;;51.45;43.75;;;;;;;17.46;100.00;101969.41;5037240;28;20086;-76
2021/06/06 00:56:06;;;;;;;48.20;42.97;;;;;;;17.46;100.00;101963.25;5034026;28;20041;-77
2021/06/06 00:58:32;;;;;;;46.72;40.20;;;;;;;17.47;100.00;101973.69;5048512;28;20024;-76
2021/06/06 01:00:58;;;;;;;46.88;41.78;;;;;;;17.53;100.00;101966.91;5001989;28;20043;-76
2021/06/06 01:03:25;;;;;;;52.90;45.83;;;;;;;17.69;100.00;101968.78;5040410;28;20032;-77
2021/06/06 01:06:08;;;;;;;47.33;42.30;;;;;;;17.69;100.00;101966.13;5031660;28;20059;-75
2021/06/06 01:08:37;;;;;;;45.22;40.13;;;;;;;17.67;100.00;101963.63;5049947;28;20124;-76
2021/06/06 01:11:06;;;;;;;50.60;45.05;;;;;;;17.70;100.00;101959.81;5022586;28;20120;-77
2021/06/06 01:13:46;;;;;;;51.75;44.08;;;;;;;17.69;100.00;101963.47;5030435;28;20412;-76
2021/06/06 01:16:18;;;;;;;48.60;42.20;;;;;;;17.65;100.00;101960.31;5037468;28;20527;-76
2021/06/06 01:18:51;;;;;;;48.88;42.47;;;;;;;17.56;100.00;101949.84;5035206;28;20025;-75
2021/06/06 01:21:42;;;;;;;49.70;43.10;;;;;;;17.60;100.00;101959.16;5041483;28;20036;-76
2021/06/06 01:24:15;;;;;;;65.60;50.28;;;;;;;17.59;100.00;101957.47;5027931;28;20135;-76
2021/06/06 01:26:51;;;;;;;52.75;46.42;;;;;;;17.51;100.00;101956.47;5034592;28;20041;-76
2021/06/06 01:29:40;;;;;;;67.80;56.83;;;;;;;17.48;100.00;101951.50;5036914;28;20060;-76
2021/06/06 01:32:19;;;;;;;64.30;54.70;;;;;;;17.51;100.00;101953.81;5045245;28;20036;-76
2021/06/06 01:34:52;;;;;;;61.00;50.17;;;;;;;17.47;100.00;101962.25;5039977;28;20573;-76
2021/06/06 01:37:21;;;;;;;62.92;50.15;;;;;;;17.47;100.00;101956.97;5037664;28;20048;-77
2021/06/06 01:39:52;;;;;;;64.30;51.88;;;;;;;17.50;100.00;101954.81;5021609;28;20025;-76
2021/06/06 01:42:29;;;;;;;60.60;51.67;;;;;;;17.52;100.00;101958.13;5040832;28;20048;-76
2021/06/06 01:45:01;;;;;;;64.75;54.88;;;;;;;17.47;100.00;101956.97;5048513;28;20044;-77
2021/06/06 01:47:28;;;;;;;74.80;59.47;;;;;;;17.45;100.00;101956.28;5037402;28;20025;-77
2021/06/06 01:49:59;;;;;;;70.22;58.17;;;;;;;17.37;100.00;101962.41;5019703;28;20034;-77
2021/06/06 01:52:29;;;;;;;;;;;;;;;17.32;100.00;101960.22;5029498;28;20113;-77
2021/06/06 01:54:56;;;;;;;;;;;;;;;17.32;100.00;101959.41;5018644;28;19917;-78
2021/06/06 01:57:24;;;;;;;;;;;;;;;17.29;100.00;101952.63;5007663;28;19916;-77
2021/06/06 01:59:57;;;;;;;;;;;;;;;17.25;100.00;101956.59;5039495;28;20305;-78
2021/06/06 02:02:23;;;;;;;;;;;;;;;17.23;100.00;101958.53;5033541;28;19966;-77
2021/06/06 02:04:49;;;;;;;;;;;;;;;17.30;100.00;101956.91;5020458;28;20019;-78
2021/06/06 02:07:18;;;;;;;;;;;;;;;17.34;100.00;101957.41;5047415;28;19916;-77
2021/06/06 02:09:47;;;;;;;;;;;;;;;17.31;100.00;101955.13;5013504;28;19928;-77
2021/06/06 02:12:40;;;;;;;;;;;;;;;17.27;100.00;101954.59;5031665;28;20375;-76
2021/06/06 02:15:09;;;;;;;;;;;;;;;17.29;100.00;101949.97;5029907;28;19917;-77
2021/06/06 02:17:39;;;;;;;;;;;;;;;17.30;100.00;101950.78;5031647;28;19917;-76
2021/06/06 02:20:24;;;;;;;;;;;;;;;17.30;100.00;101958.75;5052815;28;19942;-76
2021/06/06 02:22:50;;;;;;;;;;;;;;;17.34;100.00;101954.78;5018977;28;20003;-77
2021/06/06 02:25:18;;;;;;;;;;;;;;;17.38;100.00;101956.09;5029205;28;20471;-74
2021/06/06 02:27:59;;;;;;;;;;;;;;;17.39;100.00;101962.25;5036156;28;19916;-76
2021/06/06 02:30:32;;;;;;;;;;;;;;;17.35;100.00;101958.25;5038149;28;19994;-76
2021/06/06 02:33:00;;;;;;;;;;;;;;;17.35;100.00;101952.94;5032470;28;19917;-78
2021/06/06 02:35:26;;;;;;;;;;;;;;;17.32;100.00;101960.22;5042237;28;19916;-76
2021/06/06 02:38:02;;;;;;;;;;;;;;;17.30;100.00;101954.25;5040979;28;19917;-76
2021/06/06 02:40:37;;;;;;;;;;;;;;;17.28;100.00;101961.53;5030298;28;19978;-76
2021/06/06 02:43:09;;;;;;;;;;;;;;;17.23;100.00;101955.88;5032160;28;19916;-77
2021/06/06 02:45:35;;;;;;;;;;;;;;;17.16;100.00;101962.00;5036453;28;20383;-77
2021/06/06 02:48:05;;;;;;;;;;;;;;;17.12;100.00;101954.38;5035783;28;20705;-76
2021/06/06 02:50:34;;;;;;;;;;;;;;;17.10;100.00;101958.16;5039269;28;19920;-76
2021/06/06 02:53:22;;;;;;;;;;;;;;;17.07;100.00;101963.81;5041000;28;20295;-77
2021/06/06 02:55:54;;;;;;;;;;;;;;;17.07;100.00;101961.97;5032934;28;20016;-76
2021/06/06 02:58:24;;;;;;;;;;;;;;;17.03;100.00;101957.16;5054622;28;20451;-77
2021/06/06 03:00:56;;;;;;;;;;;;;;;17.03;100.00;101958.00;5041239;28;19927;-77
2021/06/06 03:03:26;;;;;;;;;;;;;;;17.02;100.00;101961.63;5037415;28;19923;-76
2021/06/06 03:05:58;;;;;;;;;;;;;;;17.06;100.00;101960.31;5034660;28;19917;-77
2021/06/06 03:08:28;;;;;;;;;;;;;;;17.00;100.00;101955.66;5037363;28;19921;-77
2021/06/06 03:10:55;;;;;;;;;;;;;;;17.02;100.00;101952.84;5032310;28;19948;-77
2021/06/06 03:13:28;;;;;;;;;;;;;;;16.99;100.00;101946.06;5027697;28;19916;-77
2021/06/06 03:15:56;;;;;;;;;;;;;;;16.92;100.00;101948.50;5040807;28;19916;-77
2021/06/06 03:18:26;;;;;;;;;;;;;;;16.95;100.00;101949.97;5046185;28;20000;-76
2021/06/06 03:20:56;;;;;;;;;;;;;;;16.91;100.00;101948.66;5035665;28;19917;-76
2021/06/06 03:23:25;;;;;;;;;;;;;;;16.88;100.00;101948.97;5044990;28;19917;-76
2021/06/06 03:26:05;;;;;;;;;;;;;;;16.88;100.00;101948.97;5045437;28;19916;-75
2021/06/06 03:28:39;;;;;;;;;;;;;;;16.82;100.00;101960.16;5026316;28;19928;-76
2021/06/06 03:31:06;;;;;;;;;;;;;;;16.78;100.00;101958.81;5047487;28;19916;-76
2021/06/06 03:33:53;;;;;;;;;;;;;;;16.75;100.00;101959.97;5036508;28;19913;-77
2021/06/06 03:36:29;;;;;;;;;;;;;;;16.75;100.00;101967.94;5042877;28;19924;-75
2021/06/06 03:38:55;;;;;;;;;;;;;;;16.73;100.00;101965.44;5050796;28;19908;-77
2021/06/06 03:41:21;;;;;;;;;;;;;;;16.69;100.00;101968.56;5039999;28;19908;-77
2021/06/06 03:43:51;;;;;;;;;;;;;;;16.74;100.00;101969.75;5036203;28;19920;-77
2021/06/06 03:46:19;;;;;;;;;;;;;;;16.72;100.00;101969.06;5032646;28;19917;-76
2021/06/06 03:48:47;;;;;;;;;;;;;;;16.79;100.00;101977.22;5039940;28;19917;-77
2021/06/06 03:51:14;;;;;;;;;;;;;;;16.76;100.00;101982.00;5037397;28;19917;-75
2021/06/06 03:53:41;;;;;;;;;;;;;;;16.77;100.00;101986.31;5025716;28;19917;-76
2021/06/06 03:56:08;;;;;;;;;;;;;;;16.72;100.00;101984.13;5038521;28;20634;-76
2021/06/06 03:58:34;;;;;;;;;;;;;;;16.69;100.00;101982.63;5036138;28;19916;-76
2021/06/06 04:01:01;;;;;;;;;;;;;;;16.66;100.00;101990.88;5040950;28;20008;-76
2021/06/06 04:03:30;;;;;;;;;;;;;;;16.63;100.00;101993.84;5038326;28;19920;-78
2021/06/06 04:05:56;;;;;;;;;;;;;;;16.59;100.00;101991.66;5043363;28;19913;-77
2021/06/06 04:08:30;;;;;;;;;;;;;;;16.59;100.00;102000.44;5032062;28;20353;-76
2021/06/06 04:11:04;;;;;;;;;;;;;;;16.55;100.00;101997.25;5048975;28;19966;-76
2021/06/06 04:13:30;;;;;;;;;;;;;;;16.49;100.00;101997.88;5029400;28;19916;-78
2021/06/06 04:15:58;;;;;;;;;;;;;;;16.47;100.00;101996.38;5027880;28;19961;-77
2021/06/06 04:18:27;;;;;;;;;;;;;;;16.46;100.00;101994.72;5049281;28;19974;-77
2021/06/06 04:20:56;;;;;;;;;;;;;;;16.44;100.00;102001.97;5044735;28;19916;-77
2021/06/06 04:23:22;;;;;;;;;;;;;;;16.42;100.00;101999.47;5036741;28;19912;-77
2021/06/06 04:25:48;;;;;;;;;;;;;;;16.41;100.00;102000.50;5037023;28;19923;-77
2021/06/06 04:28:16;;;;;;;;;;;;;;;16.39;100.00;102001.59;5048283;28;19923;-76
2021/06/06 04:30:44;;;;;;;;;;;;;;;16.37;100.00;102004.44;5046379;28;19978;-77
2021/06/06 04:33:10;;;;;;;;;;;;;;;16.37;100.00;102003.59;5048559;28;20294;-76
2021/06/06 04:35:38;;;;;;;;;;;;;;;16.37;100.00;102004.44;5053057;28;19912;-77
2021/06/06 04:38:06;;;;;;;;;;;;;;;16.37;100.00;101996.50;5045443;28;19924;-77
2021/06/06 04:40:34;;;;;;;;;;;;;;;16.35;100.00;102007.22;5036690;28;19917;-77
2021/06/06 04:43:02;;;;;;;;;;;;;;;16.34;100.00;102000.25;5029622;28;19916;-77
2021/06/06 04:45:29;;;;;;;;;;;;;;;16.34;100.00;101999.44;5012782;28;19927;-76
2021/06/06 04:48:08;;;;;;;;;;;;;;;16.38;100.00;101997.31;5036654;28;19920;-76
2021/06/06 04:50:34;;;;;;;;;;;;;;;16.37;100.00;102000.94;5051284;28;19924;-76
2021/06/06 04:53:03;;;;;;;;;;;;;;;16.42;100.00;101993.38;5056539;28;19913;-77
2021/06/06 04:55:29;;;;;;;;;;;;;;;16.37;100.00;101990.34;5059111;28;19917;-77
2021/06/06 04:57:56;;;;;;;;;;;;;;;16.39;100.00;101994.53;5031760;28;19916;-77
2021/06/06 05:00:30;;;;;;;;;;;;;;;16.39;100.00;101998.97;5038137;28;19987;-77
2021/06/06 05:02:56;;;;;;;;;;;;;;;16.41;99.96;102007.59;5050874;28;19916;-79
2021/06/06 05:05:22;;;;;;;;;;;;;;;16.40;98.99;102003.28;5047757;28;19924;-77
2021/06/06 05:07:50;;;;;;;;;;;;;;;16.42;99.43;102002.13;5033816;28;19920;-76
2021/06/06 05:10:19;;;;;;;;;;;;;;;16.43;99.42;101997.69;5030672;28;20462;-77
2021/06/06 05:12:46;;;;;;;;;;;;;;;16.45;98.10;102001.00;5035032;28;19913;-76
2021/06/06 05:15:12;;;;;;;;;;;;;;;16.45;97.66;101998.38;5034244;28;19920;-76
2021/06/06 05:17:38;;;;;;;;;;;;;;;16.41;98.40;101999.66;5035474;28;19932;-76
2021/06/06 05:20:06;;;;;;;;;;;;;;;16.44;98.62;102000.16;5016702;28;19962;-76
2021/06/06 05:22:32;;;;;;;;;;;;;;;16.47;98.69;102006.97;5029527;28;20371;-77
2021/06/06 05:24:57;;;;;;;;;;;;;;;16.42;99.22;102011.91;5029265;28;19913;-76
2021/06/06 05:27:27;;;;;;;;;;;;;;;16.38;99.27;102010.56;5016701;28;20051;-76
2021/06/06 05:29:53;;;;;;;;;;;;;;;16.33;99.57;102013.66;5035678;28;19920;-77
2021/06/06 05:32:18;;;;;;;;;;;;;;;16.35;99.47;102012.53;5033443;28;19921;-76
2021/06/06 05:34:44;;;;;;;;;;;;;;;16.34;100.00;102013.50;5041919;28;19917;-78
2021/06/06 05:37:12;;;;;;;;;;;;;;;16.37;100.00;102014.16;5041444;28;19920;-77
2021/06/06 05:39:38;;;;;;;;;;;;;;;16.39;100.00;102010.41;5025087;28;19916;-76
2021/06/06 05:42:04;;;;;;;;;;;;;;;16.38;99.22;102007.91;5044116;28;20313;-75
2021/06/06 05:44:29;;;;;;;;;;;;;;;16.43;99.84;102008.28;5034651;28;19917;-77
2021/06/06 05:46:55;;;;;;;;;;;;;;;16.47;99.50;102005.16;5028266;28;20638;-76
2021/06/06 05:49:20;;;;;;;;;;;;;;;16.50;99.85;102002.22;5026956;28;19921;-76
2021/06/06 05:51:53;;;;;;;;;;;;;;;16.53;99.08;102003.72;5033167;28;19916;-79
2021/06/06 05:54:23;;;;;;;;;;;;;;;16.53;97.34;102004.53;5030655;28;20185;-76
2021/06/06 05:56:48;;;;;;;;;;;;;;;16.55;97.51;102002.56;5049314;28;19924;-78
2021/06/06 05:59:14;;;;;;;;;;;;;;;16.58;97.65;102019.16;5042105;28;19913;-77
2021/06/06 06:01:40;;;;;;;;;;;;;;;16.63;96.77;102020.34;5039427;28;19920;-79
2021/06/06 06:04:05;;;;;;;;;;;;;;;16.71;97.63;102022.22;5038976;28;19916;-77
2021/06/06 06:06:31;;;;;;;;;;;;;;;16.65;95.95;102022.81;5030904;28;19918;-77
2021/06/06 06:08:58;;;;;;;;;;;;;;;16.51;95.98;102016.28;5041859;28;19920;-78
2021/06/06 06:11:23;;;;;;;;;;;;;;;16.44;96.66;102017.88;5038106;28;19916;-77
2021/06/06 06:13:51;;;;;;;;;;;;;;;16.49;97.27;102023.53;5039951;28;20458;-77
2021/06/06 06:16:23;;;;;;;;;;;;;;;16.44;97.76;102026.63;5043067;28;19917;-77
2021/06/06 06:18:49;;;;;;;;;;;;;;;16.42;97.79;102035.72;5036691;28;19928;-76
2021/06/06 06:21:16;;;;;;;;;;;;;;;16.43;97.31;102034.75;5027904;28;19917;-78
2021/06/06 06:23:42;;;;;;;;;;;;;;;16.46;97.01;102037.09;5029826;28;20382;-77
2021/06/06 06:26:08;;;;;;;;;;;;;;;16.40;97.46;102040.34;5036686;28;19924;-75
2021/06/06 06:28:35;;;;;;;;;;;;;;;16.40;97.51;102045.66;5033771;28;19916;-77
2021/06/06 06:31:08;;;;;;;;;;;;;;;16.43;97.92;102040.88;5037973;28;19925;-75
2021/06/06 06:33:42;;;;;;;;;;;;;;;16.41;97.08;102042.84;5040947;28;19936;-77
2021/06/06 06:36:09;;;;;;;;;;;;;;;16.44;97.29;102049.66;5034090;28;19981;-79
2021/06/06 06:38:34;;;;;;;;;;;;;;;16.53;97.32;102049.56;5045106;28;19924;-77
2021/06/06 06:41:00;;;;;;;;;;;;;;;16.47;97.32;102052.00;5029242;28;19920;-76
2021/06/06 06:43:26;;;;;;;;;;;;;;;16.44;98.03;102058.41;5039428;28;20037;-76
2021/06/06 06:45:53;;;;;;;;;;;;;;;16.53;97.99;102060.16;5027408;28;19937;-76
2021/06/06 06:48:20;;;;;;;;;;;;;;;16.44;96.84;102057.59;5034786;28;19920;-77
2021/06/06 06:50:46;;;;;;;;;;;;;;;16.44;97.53;102065.53;5031813;28;19916;-78
2021/06/06 06:53:12;;;;;;;;;;;;;;;16.39;98.80;102063.38;5029874;28;19923;-76
2021/06/06 06:55:37;;;;;;;;;;;;;;;16.39;99.64;102063.38;5040402;28;19925;-77
2021/06/06 06:58:03;;;;;;;;;;;;;;;16.35;100.00;102069.94;5054931;28;20375;-77
2021/06/06 07:00:30;;;;;;;;;;;;;;;16.33;100.00;102059.50;5056925;28;19920;-77
2021/06/06 07:02:56;;;;;;;;;;;;;;;16.32;100.00;102068.41;5059045;28;19912;-77
2021/06/06 07:05:22;;;;;;;;;;;;;;;16.30;99.79;102072.22;5055035;28;19922;-75
2021/06/06 07:07:47;;;;;;;;;;;;;;;16.30;99.65;102069.56;5060404;28;19922;-77
2021/06/06 07:10:14;;;;;;;;;;;;;;;16.30;99.38;102072.22;5063110;28;19969;-77
2021/06/06 07:12:39;;;;;;;;;;;;;;;16.36;98.77;102074.25;5068392;28;20434;-75
2021/06/06 07:15:06;;;;;;;;;;;;;;;16.41;99.35;102071.97;5067220;28;19999;-77
2021/06/06 07:17:32;;;;;;;;;;;;;;;16.43;99.01;102071.84;5063042;28;19916;-77
2021/06/06 07:19:57;;;;;;;;;;;;;;;16.46;98.11;102076.81;5041177;28;19920;-76
2021/06/06 07:22:22;;;;;;;;;;;;;;;16.46;98.06;102075.00;5044326;28;19920;-75
2021/06/06 07:24:48;;;;;;;;;;;;;;;16.56;97.61;102074.91;5038049;28;19970;-76
2021/06/06 07:27:13;;;;;;;;;;;;;;;16.61;96.85;102077.09;5030328;28;20635;-76
2021/06/06 07:29:39;;;;;;;;;;;;;;;16.61;96.61;102075.28;5035649;28;19924;-76
2021/06/06 07:32:05;;;;;;;;;;;;;;;16.60;96.54;102078.91;5037816;28;20410;-76
2021/06/06 07:34:30;;;;;;;;;;;;;;;16.62;96.13;102076.94;5035160;28;20379;-76
2021/06/06 07:37:01;;;;;;;;;;;;;;;16.67;96.53;102079.97;5046565;28;19924;-77
2021/06/06 07:39:26;;;;;;;;;;;;;;;16.72;96.59;102076.84;5028150;28;19959;-77
2021/06/06 07:41:52;;;;;;;;;;;;;;;16.71;97.14;102083.16;5029931;28;19956;-77
2021/06/06 07:44:20;;;;;;;;;;;;;;;16.76;96.18;102080.84;5039374;28;20004;-77
2021/06/06 07:46:46;;;;;;;;;;;;;;;16.76;94.49;102083.50;5036062;28;20614;-76
2021/06/06 07:49:13;;;;;;;;;;;;;;;16.72;94.46;102082.97;5029804;28;19939;-76
2021/06/06 07:51:38;;;;;;;;;;;;;;;16.69;94.28;102082.47;5013460;28;19917;-77
2021/06/06 07:54:04;;;;;;;;;;;;;;;16.68;94.67;102084.28;5030091;28;19932;-77
2021/06/06 07:56:30;;;;;;;;;;;;;;;16.68;95.28;102073.66;5030425;28;19920;-78
2021/06/06 07:58:55;;;;;;;;;;;;;;;16.75;94.46;102081.84;5032719;28;19917;-77
2021/06/06 08:01:21;;;;;;;;;;;;;;;16.76;95.02;102083.50;5043856;28;19921;-77
2021/06/06 08:03:47;;;;;;;;;;;;;;;16.72;94.69;102087.44;5045629;28;20635;-78
2021/06/06 08:06:13;;;;;;;;;;;;;;;16.75;94.31;102087.16;5051079;28;19913;-77
2021/06/06 08:08:38;;;;;;;;;;;;;;;16.75;95.12;102087.16;5035014;28;19959;-77
2021/06/06 08:11:04;;;;;;;;;;;;;;;16.77;95.28;102085.19;5042342;28;19924;-77
2021/06/06 08:13:30;;;;;;;;;;;;;;;16.79;95.22;102083.19;5027714;28;19913;-75
2021/06/06 08:15:56;;;;;;;;;;;;;;;16.86;95.79;102083.47;5041495;28;19924;-77
2021/06/06 08:18:27;;;;;;;;;;;;;;;17.03;93.99;102087.88;5054601;28;19916;-76
2021/06/06 08:20:58;;;;;;;;;;;;;;;17.08;92.43;102088.25;5064775;28;19916;-76
2021/06/06 08:23:24;;;;;;;;;;;;;;;17.08;92.05;102093.53;5050163;28;19916;-75
2021/06/06 08:25:49;;;;;;;;;;;;;;;17.05;93.07;102093.03;5029241;28;19921;-78
2021/06/06 08:28:15;;;;;;;;;;;;;;;17.04;93.81;102097.47;5036999;28;19936;-76
2021/06/06 08:30:46;;;;;;;;;;;;;;;17.10;91.80;102093.34;5043060;28;19959;-77
2021/06/06 08:33:11;;;;;;;;;;;;;;;17.21;91.87;102086.97;5056206;28;19923;-76
2021/06/06 08:35:37;;;;;;;;;;;;;;;17.23;91.50;102091.09;5043042;28;19920;-76
2021/06/06 08:38:03;;;;;;;;;;;;;;;17.31;91.31;102090.34;5042421;28;19914;-77
2021/06/06 08:40:31;;;;;;;;;;;;;;;17.40;92.35;102091.19;5036338;28;19912;-75
2021/06/06 08:42:58;;;;;;;;;;;;;;;17.48;92.54;102089.44;5030920;28;19920;-76
2021/06/06 08:45:28;;;;;;;;;;;;;;;17.50;90.94;102091.94;5030857;28;20386;-77
2021/06/06 08:47:55;;;;;;;;;;;;;;;17.61;91.09;102088.13;5035401;28;20399;-77
2021/06/06 08:50:25;;;;;;;;;;;;;;;17.62;90.39;102090.63;5030061;28;20345;-76
2021/06/06 08:52:50;;;;;;;;;;;;;;;17.81;90.60;102089.53;5047631;28;19960;-77
2021/06/06 08:55:35;;;;;;;;;;;;;;;17.87;88.61;102096.03;5028929;28;19952;-75
2021/06/06 08:58:24;;;;;;;;;;;;;;;17.90;89.81;102096.56;5037559;28;19956;-76
2021/06/06 09:00:55;;;;;;;;;;;;;;;18.05;90.62;102096.75;5059655;28;20279;-77
2021/06/06 09:03:25;;;;;;;;;;;;;;;18.07;88.02;102105.38;5045610;28;19920;-77
2021/06/06 09:05:57;;;;;;;;;;;;;;;18.20;89.79;102107.56;5047305;28;19925;-76
2021/06/06 09:08:25;;;;;;;;;;;;;;;18.20;87.52;102109.41;5033658;28;20374;-78
2021/06/06 09:10:54;;;;;;;;;;;;;;;18.20;86.15;102104.94;5051842;28;20019;-76
2021/06/06 09:13:22;;;;;;;;;;;;;;;18.15;86.68;102109.88;5044678;28;19916;-78
2021/06/06 09:15:47;;;;;;;;;;;;;;;18.25;87.67;102110.59;5031637;28;20291;-76
2021/06/06 09:18:18;;;;;;;;;;;;;;;18.36;88.18;102112.06;5048158;28;19924;-76
2021/06/06 09:20:44;;;;;;;;;;;;;;;18.37;87.83;102111.09;5052421;28;19916;-77
2021/06/06 09:23:19;;;;;;;;;;;;;;;18.39;87.04;102108.28;5047217;28;20294;-77
2021/06/06 09:25:46;;;;;;;;;;;;;;;18.40;88.20;102107.25;5050089;28;19916;-77
2021/06/06 09:28:24;;;;;;;;;;;;;;;18.35;86.13;102110.41;5049422;28;19916;-77
2021/06/06 09:31:16;;;;;;;;;;;;;;;18.46;88.52;102110.09;5047116;28;19920;-77
2021/06/06 09:33:49;;;;;;;;;;;;;;;18.60;85.33;102116.56;5051454;28;19916;-76
2021/06/06 09:36:16;;;;;;;;;;;;;;;18.81;86.15;102115.25;5037398;28;19917;-77
2021/06/06 09:38:42;;;;;;;;;;;;;;;19.02;86.13;102112.06;5053235;28;19915;-76
2021/06/06 09:41:10;;;;;;;;;;;;;;;19.23;85.00;102117.69;5057252;28;20729;-75
2021/06/06 09:43:36;;;;;;;;;;;;;;;19.36;83.88;102121.63;5034900;28;19967;-76
2021/06/06 09:46:16;;;;;;;;;;;;;;;19.44;82.85;102121.63;5028209;28;19921;-78
2021/06/06 09:48:44;;;;;;;;;;;;;;;19.59;84.89;102125.22;5031514;28;20004;-75
2021/06/06 09:51:14;;;;;;;;;;;;;;;19.64;82.94;102124.69;5026210;28;20437;-76
2021/06/06 09:53:41;;;;;;;;;;;;;;;19.56;81.49;102124.72;5032392;28;20040;-75
2021/06/06 09:56:22;;;;;;;;;;;;;;;19.39;81.69;102126.63;5027137;28;19928;-77
2021/06/06 09:58:48;;;;;;;;;;;;;;;19.29;83.34;102128.63;5029602;28;19920;-76
2021/06/06 10:01:24;;;;;;;;;;;;;;;19.20;83.18;102123.34;5034218;28;20302;-76
2021/06/06 10:03:51;;;;;;;;;;;;;;;19.09;83.18;102122.88;5052070;28;20403;-77
2021/06/06 10:06:23;;;;;;;;;;;;;;;18.98;83.80;102127.53;5050161;28;19939;-76
2021/06/06 10:09:07;;;;;;;;;;;;;;;18.84;83.66;102128.22;5028047;28;20346;-76
2021/06/06 10:11:47;;;;;;;;;;;;;;;18.63;84.13;102128.72;5030620;28;19940;-77
2021/06/06 10:14:13;;;;;;;;;;;;;;;18.53;87.71;102128.84;5052080;28;20302;-78
2021/06/06 10:16:40;;;;;;;;;;;;;;;18.57;87.33;102130.22;5025913;28;20023;-77
2021/06/06 10:19:15;;;;;;;;;;;;;;;18.49;86.01;102130.19;5053968;28;19916;-76
2021/06/06 10:21:41;;;;;;;;;;;;;;;18.43;88.38;102136.16;5045735;28;19913;-75
2021/06/06 10:24:29;;;;;;;;;;;;;;;18.45;86.74;102131.50;5030632;28;20280;-75
2021/06/06 10:26:57;;;;;;;;;;;;;;;18.44;86.09;102133.34;5029298;28;19924;-76
2021/06/06 10:29:26;;;;;;;;;;;;;;;18.40;86.29;102139.13;5044333;28;19959;-76
2021/06/06 10:31:53;;;;;;;;;;;;;;;18.42;87.78;102132.69;5027551;28;20011;-78
2021/06/06 10:34:22;;;;;;;;;;;;;;;18.51;86.53;102128.19;5077386;28;19975;-77
2021/06/06 10:36:47;;;;;;;;;;;;;;;18.57;85.98;102135.53;5069606;28;20434;-77
2021/06/06 10:39:17;;;;;;;;;;;;;;;18.63;86.81;102131.38;5057371;28;20012;-75
2021/06/06 10:42:05;;;;;;;;;;;;;;;18.73;85.66;102136.50;5021689;28;20363;-76
2021/06/06 10:44:38;;;;;;;;;;;;;;;18.71;85.42;102136.66;4993845;28;20418;-78
2021/06/06 10:47:22;;;;;;;;;;;;;;;18.76;85.90;102137.00;5033521;28;19960;-76
2021/06/06 10:49:58;;;;;;;;;;;;;;;18.77;85.21;102143.16;5019858;28;19937;-76
2021/06/06 10:52:34;;;;;;;;;;;;;;;18.84;87.35;102137.03;5037578;28;19977;-76
2021/06/06 10:55:20;;;;;;;;;;;;;;;18.86;86.33;102142.19;5045177;28;19978;-76
2021/06/06 10:57:46;;;;;;;;;;;;;;;18.90;86.13;102140.03;5044470;28;19987;-77
2021/06/06 11:00:12;;;;;;;;;;;;;;;18.97;85.88;102146.34;5050340;28;19935;-77
2021/06/06 11:02:39;;;;;;;;;;;;;;;18.95;83.56;102143.84;5052021;28;19997;-76
2021/06/06 11:05:10;;;;;;;;;;;;;;;18.88;83.92;102140.19;5052185;28;19916;-76
2021/06/06 11:07:41;;;;;;;;;;;;;;;18.88;83.41;102134.03;5050009;28;19916;-76
2021/06/06 11:10:12;;;;;;;;;;;;;;;18.91;85.28;102139.84;5049344;28;19917;-77
2021/06/06 11:12:39;;;;;;;;;;;;;;;18.98;85.19;102140.81;5063840;28;19916;-77
2021/06/06 11:15:24;;;;;;;;;;;;;;;18.88;85.43;102144.69;5048182;28;19913;-77
2021/06/06 11:17:50;;;;;;;;;;;;;;;18.88;86.14;102140.19;5041229;28;19921;-78
2021/06/06 11:20:16;;;;;;;;;;;;;;;18.95;84.71;102142.97;5062714;28;19966;-77
2021/06/06 11:22:46;;;;;;;;;;;;;;;19.02;85.34;102147.50;5048805;28;19916;-77
2021/06/06 11:25:26;;;;;;;;;;;;;;;18.89;84.05;102147.16;5059580;28;20331;-76
2021/06/06 11:28:00;;;;;;;;;;;;;;;18.87;84.42;102151.81;5064064;28;19920;-76
2021/06/06 11:30:27;;;;;;;;;;;;;;;18.79;85.51;102149.94;5047806;28;19920;-77
2021/06/06 11:32:56;;;;;;;;;;;;;;;18.83;85.21;102145.16;5054875;28;19912;-77
2021/06/06 11:35:28;;;;;;;;;;;;;;;18.83;84.22;102145.97;5050820;28;19919;-76
2021/06/06 11:37:55;;;;;;;;;;;;;;;18.91;84.29;102144.31;5049089;28;19923;-76
2021/06/06 11:40:28;;;;;;;;;;;;;;;18.99;84.72;102149.66;5033315;28;19952;-76
2021/06/06 11:42:57;;;;;;;;;;;;;;;19.08;84.33;102155.78;5052022;28;19916;-76
2021/06/06 11:45:26;;;;;;;;;;;;;;;19.16;82.06;102145.13;5049541;28;19916;-76
2021/06/06 11:48:06;;;;;;;;;;;;;;;19.26;82.13;102143.09;5059269;28;19920;-76
2021/06/06 11:50:39;;;;;;;;;;;;;;;19.33;81.87;102141.44;5053706;28;19920;-77
2021/06/06 11:53:06;;;;;;;;;;;;;;;19.40;81.53;102147.75;5050767;28;19958;-78
2021/06/06 11:55:39;;;;;;;;;;;;;;;19.39;82.14;102143.41;5061492;28;19925;-77
2021/06/06 11:58:11;;;;;;;;;;;;;;;19.40;84.01;102145.09;5064131;28;19920;-77
2021/06/06 12:00:41;;;;;;;;;;;;;;;19.30;83.44;102144.44;5064029;28;19970;-77
2021/06/06 12:03:16;;;;;;;;;;;;;;;19.17;83.78;102144.94;5060588;28;19913;-76
2021/06/06 12:05:52;;;;;;;;;;;;;;;18.90;84.53;102148.81;5069276;28;20452;-76
2021/06/06 12:08:18;;;;;;;;;;;;;;;18.84;84.17;102142.34;5054052;28;19917;-76
2021/06/06 12:10:52;;;;;;;;;;;;;;;18.90;85.05;102148.81;5051484;28;19966;-76
2021/06/06 12:13:20;;;;;;;;;;;;;;;18.90;83.97;102146.16;5050158;28;20007;-77
2021/06/06 12:15:45;;;;;;;;;;;;;;;18.94;85.91;102150.13;5050103;28;19921;-76
2021/06/06 12:18:16;;;;;;;;;;;;;;;19.08;84.30;102143.34;5059340;28;19923;-77
2021/06/06 12:21:07;;;;;;;;;;;;;;;19.19;83.99;102148.28;5062524;28;20408;-76
2021/06/06 12:23:34;;;;;;;;;;;;;;;19.29;82.48;102148.09;5027474;28;20760;-76
2021/06/06 12:26:18;;;;;;;;;;;;;;;19.43;82.16;102150.03;5053733;28;19920;-78
2021/06/06 12:28:45;;;;;;;;;;;;;;;19.35;81.58;102144.75;5050909;28;19923;-77
2021/06/06 12:31:26;;;;;;;;;;;;;;;19.38;82.08;102144.44;5047409;28;19921;-77